Extreme weather reports worldwide

Snow

Station
 
Location
 
Name
 
Wind
Knots
Gust
Knots
Vis
SM
Temp/Dew
C
Baro
inHg
METAR
 
NZCM 28 36 1.8 -27/-34 29.11 NZCM 011355Z AUTO 09028G36KT 2900 BLSN BR FEW002 M28/M34 A2911 RMK AO2 PK WND 09040/1339 VIS 1700V7000 SNB1352E1353 PRESRR SLP865 T12771344 $
LIMH IT Pian Rosà 5 0.19 1/0 30.06 LIMH 011355Z 04005KT 0300 -SN FG VV/// 01/00 Q1018 RMK MON INVIS VAL INVIS VIS MIN 0300